Nora, Nebraska
Current Conditions -  °F | °C
As of 5:35 AM on Thursday 18 Dec 2014 (Local Time) from KHJH Reporting Station
Light Snow Light Snow  
Wind Chill: 26°   Ceiling: 1200
Heat Index: 26°   Visibility: 1.5mi
Dew Point: 23°   Wind: 0mph
Humidity: 92%   Direction: NA
Pressure: 30.17"   Gusts: NA
Location:  40.2199°N, 98.0479°W
Report Text: KHJH 181135Z AUTO 00000KT 1 1/2SM -SN OVC012 M04/M05 A3017 RMK AO2 T10361048
Loading
Personal Weather Stations






























Interactive Weather Map New forecast layout! Learn more

10-Day Weather Forecast

Advertisements
Track Severe Weather on mobile